Elliot Chaparral Reserve, California Weather observations

Data are for 10 minute period ending at time listed.
 Day   Time   Solar   Ave.   Ave.  Ave.  Vector  Max.   Baro.   Total    
  of    of     Rad.   Air    Rel.  Wind   Wind   Wind  Press.  Precip.   
Year   Day            Temp.  Hum.  Speed  Dir.   Gust                    
2016   (PST)  Kw/m2    F      %     mph   deg.    mph    mb.     in.     
-------------------------------------------------------------------------
 268    8:20   0.50   77.4    28    5.6   120     7.5   987.6    0.00 
 268    8:30   0.53   79.0    26    3.4   128     7.4   987.6    0.00 
 268    8:40   0.56   80.9    21    1.4    64     3.8   987.7    0.00 
 268    8:50   0.59   82.7    19    1.3   152     3.8   987.7    0.00 
 268    9:00   0.61   84.0    18    2.3   211     4.0   987.6    0.00 
 268    9:10   0.64   83.3    18    2.7   337     5.6   987.7    0.00 
 268    9:20   0.66   82.9    18    4.2   317     6.6   987.6    0.00 
 268    9:30   0.69   83.1    20    4.2   276     7.4   987.5    0.00 
 268    9:40   0.71   83.2    19    5.1   292     9.3   987.3    0.00 
 268    9:50   0.73   83.4    18    6.7   303     9.7   987.3    0.00 
 268   10:00   0.75   84.5    17    6.6   313     9.6   987.2    0.00 
 268   10:10   0.76   84.3    18    6.5   306    10.7   987.1    0.00 
 268   10:20   0.78   84.9    16    6.9   304    11.1   987.1    0.00 
 268   10:30   0.79   85.6    16    7.5   312    12.6   987.0    0.00 
 268   10:40   0.81   85.9    16    7.6   294    11.3   986.9    0.00 
 268   10:50   0.82   85.9    18    8.4   312    11.9   986.8    0.00 
 268   11:00   0.82   86.1    20    6.1   301    13.7   986.7    0.00 
 268   11:10   0.82   86.3    19    9.5   286    14.4   986.6    0.00 
 268   11:20   0.83   86.5    19   10.6   309    14.8   986.6    0.00 
 268   11:30   0.81   86.5    18   10.6   302    15.3   986.5    0.00 
 268   11:40   0.83   86.0    15   11.5   291    15.6   986.5    0.00 
 268   11:50   0.84   87.0    13   10.2   305    16.0   986.5    0.00 
 268   12:00   0.84   87.7    13   11.1   303    14.0   986.3    0.00 
 268   12:10   0.83   87.5    15   11.3   303    16.0   986.3    0.00 
 268   12:20   0.83   87.5    14   11.5   293    16.0   986.2    0.00 
 268   12:30   0.82   87.3    15   11.2   315    14.8   986.0    0.00 
 268   12:40   0.81   87.6    16   11.9   311    16.2   985.9    0.00 
 268   12:50   0.80   87.4    16   12.7   289    16.9   985.8    0.00 
 268   13:00   0.79   86.9    16   13.2   295    18.8   985.6    0.00 
 268   13:10   0.77   87.7    17   11.0   302    18.0   985.5    0.00 
 268   13:20   0.75   86.9    17   12.8   298    17.8   985.4    0.00 
 268   13:30   0.73   87.5    15   11.1   311    19.2   985.3    0.00 
 268   13:40   0.71   87.2    13   14.3   318    18.9   985.3    0.00 
 268   13:50   0.69   85.7    15   16.1   313    20.5   985.3    0.00 
 268   14:00   0.67   85.0    16   15.1   308    19.4   985.3    0.00 
 268   14:10   0.65   85.5    16   12.9   319    20.6   985.3    0.00 
 268   14:20   0.62   84.1    18   15.3   310    21.0   985.1    0.00 
 268   14:30   0.59   84.5    19   13.4   306    18.8   985.0    0.00 
 268   14:40   0.56   84.8    19   14.4   304    19.9   985.1    0.00 
 268   14:50   0.53   83.9    18   14.7   307    18.6   985.2    0.00 
 268   15:00   0.50   84.1    19   13.9   314    18.5   985.1    0.00 
 268   15:10   0.47   83.8    18   15.1   304    20.1   985.0    0.00 
 268   15:20   0.44   82.9    18   14.1   317    21.6   985.0    0.00 
 268   15:30   0.41   83.9    20   10.8   303    15.3   985.2    0.00 
 268   15:40   0.37   82.9    21   12.8   300    16.9   985.3    0.00 
 268   15:50   0.34   82.3    21   11.1   319    15.8   985.3    0.00 
 268   16:00   0.30   81.9    22   10.5   331    15.6   985.3    0.00 
 268   16:10   0.26   81.7    22   10.0   314    13.1   985.3    0.00 
 268   16:20   0.23   82.1    22    9.5   327    15.1   985.4    0.00 
 268   16:30   0.19   81.2    22   10.9   333    14.5   985.4    0.00 
 268   16:40   0.16   80.6    22    9.0   312    14.7   985.6    0.00 
 268   16:50   0.13   81.0    22    7.2   321    11.2   985.6    0.00 
 268   17:00   0.10   80.4    24    7.1   312    10.0   985.6    0.00 
 268   17:10   0.07   79.6    25    7.4   329    10.5   985.7    0.00 
 268   17:20   0.04   78.3    28    7.0   334     8.5   985.9    0.00 
 268   17:30   0.02   77.4    29    6.1   345     9.3   985.8    0.00 
 268   17:40   0.00   76.2    31    5.7   354     7.7   985.9    0.00 
 268   17:50   0.00   75.1    31    7.3     5     9.9   986.0    0.00 
 268   18:00   0.00   74.7    30    8.4     4    11.1   986.0    0.00 
 268   18:10   0.00   75.1    25    9.4     4    12.4   986.0    0.00 
 268   18:20   0.00   75.2    24    8.6     4    10.4   986.1    0.00 
 268   18:30   0.00   74.7    23    9.2     4    12.5   986.1    0.00 
 268   18:40   0.00   75.4    19    8.8     5    11.3   986.2    0.00 
 268   18:50   0.00   75.5    19    6.2   357     9.0   986.3    0.00 
 268   19:00   0.00   74.7    21    4.2   337     5.4   986.5    0.00 
 268   19:10   0.00   74.4    22    4.4   321     5.6   986.6    0.00 
 268   19:20   0.00   73.6    26    4.4   323     5.7   986.7    0.00 
 268   19:30   0.00   72.2    30    5.8   335     8.3   986.8    0.00 
 268   19:40   0.00   71.5    32    6.1   351     7.6   986.9    0.00 
 268   19:50   0.00   71.1    33    6.8   345     7.9   986.9    0.00 
 268   20:00   0.00   71.0    32    6.0     5     6.7   987.0    0.00 
 268   20:10   0.00   71.9    29    5.4    19     7.0   987.0    0.00 
 268   20:20   0.00   72.7    25    4.2    38     6.1   987.0    0.00 
 268   20:30   0.00   74.2    20    5.0    27     7.2   986.9    0.00 
 268   20:40   0.00   74.9    19    5.3    54     7.3   986.9    0.00 
 268   20:50   0.00   73.6    22    4.2    63     5.8   987.1    0.00 
 268   21:00   0.00   75.8    19    3.4    46     4.2   987.1    0.00 
 268   21:10   0.00   75.5    22    2.6    56     3.8   987.1    0.00 
 268   21:20   0.00   74.7    23    4.7    79     6.4   987.1    0.00 
 268   21:30   0.00   74.1    24    5.0    88     7.2   987.1    0.00 
 268   21:40   0.00   74.3    24    5.5    94     8.3   987.1    0.00 
 268   21:50   0.00   74.3    24    5.4    82     8.0   987.0    0.00 
 268   22:00   0.00   73.5    26    5.8    79     8.1   987.1    0.00 
 268   22:10   0.00   73.4    26    6.3    94     9.4   987.0    0.00 
 268   22:20   0.00   74.0    25    5.8    96     9.8   987.0    0.00 
 268   22:30   0.00   73.5    25    4.1    89     6.4   987.1    0.00 
 268   22:40   0.00   73.2    26    3.1    91     6.0   986.9    0.00 
 268   22:50   0.00   73.3    25    5.2    90     7.2   986.8    0.00 
 268   23:00   0.00   72.7    26    2.7    72     4.7   986.8    0.00 
 268   23:10   0.00   72.6    26    1.8   358     3.4   986.7    0.00 
 268   23:20   0.00   72.0    27    3.7   106     6.6   986.8    0.00 
 268   23:30   0.00   72.1    27    6.2    94     8.7   986.7    0.00 
 268   23:40   0.00   72.3    27    6.0    97     8.3   986.8    0.00 
 268   23:50   0.00   71.6    27    4.0    66     6.5   986.8    0.00 
 269    0:00   0.00   72.1    26    2.8    74     6.7   986.7    0.00 
 269    0:10   0.00   72.1    26    2.7    97     7.2   986.5    0.00 
 269    0:20   0.00   71.2    27    1.2   148     2.9   986.4    0.00 
 269    0:30   0.00   71.2    27    2.9    73     4.8   986.3    0.00 
 269    0:40   0.00   71.9    26    2.6    52     4.2   986.2    0.00 
 269    0:50   0.00   72.2    26    3.2   339     4.2   986.3    0.00 
 269    1:00   0.00   71.8    26    3.1     3     3.9   986.4    0.00 
 269    1:10   0.00   71.1    27    2.2    75     3.7   986.5    0.00 
 269    1:20   0.00   70.1    28    3.1   129     5.4   986.5    0.00 
 269    1:30   0.00   69.6    29    4.0    89     5.6   986.5    0.00 
 269    1:40   0.00   69.3    29    4.1    98     5.8   986.4    0.00 
 269    1:50   0.00   70.0    28    4.4    82     6.6   986.3    0.00 
 269    2:00   0.00   70.2    28    4.0    81     5.4   986.1    0.00 
 269    2:10   0.00   71.2    25    4.4    80     6.1   986.0    0.00 
 269    2:20   0.00   71.9    24    3.4    75     5.5   985.9    0.00 
 269    2:30   0.00   72.3    24    4.0    75     7.2   986.0    0.00 
 269    2:40   0.00   70.9    25    5.6    63     6.6   986.0    0.00 
 269    2:50   0.00   72.2    23    5.2    55     6.4   986.1    0.00 
 269    3:00   0.00   71.9    24    5.8    57     7.7   986.1    0.00 
 269    3:10   0.00   70.5    25    5.1    66     6.5   986.1    0.00 
 269    3:20   0.00   70.0    26    5.3    68     6.8   986.2    0.00 
 269    3:30   0.00   71.5    24    4.0    58     6.2   986.2    0.00 
 269    3:40   0.00   74.5    21    2.8    30     3.9   986.2    0.00 
 269    3:50   0.00   74.0    21    3.3    54     5.3   986.3    0.00 
 269    4:00   0.00   72.9    22    4.6    63     7.8   986.5    0.00 
 269    4:10   0.00   74.2    21    7.1    29    11.3   986.4    0.00 
 269    4:20   0.00   75.0    20    7.1    43    10.3   986.4    0.00 
 269    4:30   0.00   73.4    22    7.7    46    10.2   986.4    0.00 
 269    4:40   0.00   77.2    17    9.3    55    12.5   986.4    0.00 
 269    4:50   0.00   76.5    18    5.4    58     7.7   986.4    0.00 
 269    5:00   0.00   74.2    20    7.0    64     9.9   986.4    0.00 
 269    5:10   0.00   76.4    18    8.2    58    11.4   986.5    0.00 
 269    5:20   0.00   78.1    16   11.1    56    13.7   986.5    0.00 
 269    5:30   0.00   78.7    16   11.3    58    14.3   986.6    0.00 
 269    5:40   0.00   78.7    16   11.3    60    14.5   986.7    0.00 
 269    5:50   0.00   79.1    16   11.2    66    14.0   986.7    0.00 
 269    6:00   0.03   79.1    16   10.7    71    13.0   986.8    0.00 
 269    6:10   0.06   80.5    15   11.5    75    14.2   986.8    0.00 
 269    6:20   0.09   81.1    15   10.4    74    13.1   986.9    0.00 
 269    6:30   0.12   82.1    14   10.4    76    14.0   986.9    0.00 
 269    6:40   0.15   83.7    14    7.1    70    11.1   987.0    0.00 
 269    6:50   0.19   84.8    14    8.4    78    12.3   987.1    0.00 
 269    7:00   0.22   85.6    13    9.7    86    13.3   987.1    0.00 
 269    7:10   0.26   86.7    13   10.1    90    14.7   987.1    0.00 
 269    7:20   0.29   87.5    13   10.8    96    14.3   987.1    0.00 
 269    7:30   0.33   88.1    12   12.1    95    15.9   987.1    0.00 
 269    7:40   0.37   88.7    12   11.6    92    15.1   987.2    0.00 
 269    7:50   0.40   90.3    12    7.9    71    11.5   987.2    0.00 
 269    8:00   0.43   90.1    12    7.4    57    11.5   987.1    0.00 
 269    8:10   0.47   89.9    12    7.2    50    14.4   987.0    0.00 

Return to Elliot Chaparral Reserve graphs page.


Western Regional Climate Center,wrcc@dri.edu